Time;durP1;ratioP1;P1;durP2;ratioP2;P2;SDS_P1;SDS_P2;PMS_P1;PMS_P2;Temp;Humidity;BMP_temperature;BMP_pressure;BME280_temperature;BME280_humidity;BME280_pressure;Samples;Min_cycle;Max_cycle;Signal;HPM_P1;HPM_P2
2022/01/08 00:02:24;;;;;;;36.03;7.75;;;;;;;5.36;100.00;100086.72;5024379;28;20065;-87
2022/01/08 00:04:51;;;;;;;32.92;9.60;;;;;;;5.37;100.00;100091.91;5007769;28;20045;-87
2022/01/08 00:07:18;;;;;;;30.90;7.15;;;;;;;5.41;100.00;100083.81;5006476;28;20092;-86
2022/01/08 00:09:45;;;;;;;32.45;8.55;;;;;;;5.44;100.00;100075.72;5024491;28;20045;-87
2022/01/08 00:12:13;;;;;;;22.15;7.97;;;;;;;5.47;100.00;100063.28;5024636;28;20096;-86
2022/01/08 00:14:40;;;;;;;34.00;7.32;;;;;;;5.48;100.00;100054.72;5006623;28;20042;-86
2022/01/08 00:17:07;;;;;;;31.55;8.07;;;;;;;5.50;100.00;100051.66;5023745;28;20041;-87
2022/01/08 00:19:34;;;;;;;24.42;8.00;;;;;;;5.52;100.00;100050.19;5025676;28;20037;-87
2022/01/08 00:22:01;;;;;;;30.40;6.43;;;;;;;5.54;100.00;100041.63;5022302;28;20041;-86
2022/01/08 00:24:28;;;;;;;27.45;7.15;;;;;;;5.56;100.00;100033.06;5024889;28;20048;-86
2022/01/08 00:26:55;;;;;;;23.42;6.63;;;;;;;5.59;100.00;100021.44;5026187;28;20034;-88
2022/01/08 00:29:22;;;;;;;19.98;5.70;;;;;;;5.63;100.00;100016.88;5009563;28;20045;-86
2022/01/08 00:31:49;;;;;;;26.85;6.30;;;;;;;5.65;100.00;100009.91;5027215;28;20492;-86
2022/01/08 00:34:15;;;;;;;26.10;5.22;;;;;;;5.67;100.00;100001.34;5026864;28;20126;-86
2022/01/08 00:36:42;;;;;;;20.48;5.13;;;;;;;5.66;100.00;99991.50;5026331;28;20144;-86
2022/01/08 00:39:09;;;;;;;25.02;6.20;;;;;;;5.68;100.00;99997.47;5024648;28;20037;-87
2022/01/08 00:41:36;;;;;;;20.05;4.72;;;;;;;5.70;100.00;99973.22;5026058;28;20041;-86
2022/01/08 00:44:05;;;;;;;25.00;4.97;;;;;;;5.73;100.00;99961.56;5026336;28;20079;-86
2022/01/08 00:46:32;;;;;;;16.85;4.82;;;;;;;5.77;100.00;99952.31;5025858;28;20466;-87
2022/01/08 00:48:59;;;;;;;13.68;4.03;;;;;;;5.79;100.00;99954.75;5025330;28;20519;-86
2022/01/08 00:51:26;;;;;;;25.80;4.50;;;;;;;5.79;100.00;99943.78;5025557;28;20053;-86
2022/01/08 00:53:53;;;;;;;16.63;3.95;;;;;;;5.82;99.94;99937.63;5026560;28;20065;-87
2022/01/08 00:56:19;;;;;;;23.55;5.40;;;;;;;5.82;100.00;99916.47;5009231;28;20046;-86
2022/01/08 00:58:46;;;;;;;16.88;4.57;;;;;;;5.84;99.91;99914.16;5025423;28;20049;-86
2022/01/08 01:01:13;;;;;;;14.25;4.97;;;;;;;5.85;99.63;99909.53;5025614;28;20080;-87
2022/01/08 01:03:40;;;;;;;17.92;4.45;;;;;;;5.85;100.00;99912.28;5026298;28;20049;-88
2022/01/08 01:06:07;;;;;;;25.90;4.97;;;;;;;5.88;99.90;99903.34;5025845;28;20055;-86
2022/01/08 01:08:34;;;;;;;14.82;3.70;;;;;;;5.89;99.71;99899.47;5025830;28;20560;-87
2022/01/08 01:11:01;;;;;;;15.93;3.88;;;;;;;5.90;99.93;99879.09;5026159;28;20041;-88
2022/01/08 01:13:28;;;;;;;24.38;4.05;;;;;;;5.92;99.58;99883.13;5026304;28;20486;-87
2022/01/08 01:15:55;;;;;;;20.58;4.78;;;;;;;5.92;99.36;99874.06;5025066;28;20045;-87
2022/01/08 01:18:21;;;;;;;25.17;6.53;;;;;;;5.92;99.59;99866.63;5025067;28;20042;-88
2022/01/08 01:20:50;;;;;;;23.77;4.03;;;;;;;5.93;99.54;99873.72;5024140;28;20485;-87
2022/01/08 01:23:21;;;;;;;23.60;5.35;;;;;;;5.96;99.67;99862.06;5027438;28;20041;-88
2022/01/08 01:25:52;;;;;;;20.60;4.38;;;;;;;5.98;99.67;99862.53;5024804;28;20053;-87
2022/01/08 01:47:01;;;;;;;13.02;3.75;;;;;;;6.19;99.44;99791.06;5023234;28;20125;-87
2022/01/08 01:49:40;;;;;;;17.15;3.40;;;;;;;6.22;99.40;99771.16;5018011;28;22174;-86
2022/01/08 01:52:09;;;;;;;21.48;4.55;;;;;;;6.23;99.25;99772.75;5026758;28;20038;-87
2022/01/08 01:54:36;;;;;;;17.63;4.68;;;;;;;6.23;99.41;99742.53;5025902;28;20094;-87
2022/01/08 01:57:06;;;;;;;15.88;5.35;;;;;;;6.26;99.12;99739.09;5006863;28;20092;-87
2022/01/08 01:59:34;;;;;;;13.90;2.85;;;;;;;6.27;99.45;99726.97;5023634;28;20049;-87
2022/01/08 02:02:02;;;;;;;15.20;3.08;;;;;;;6.27;99.44;99718.72;5008459;28;20132;-88
2022/01/08 02:04:29;;;;;;;16.45;3.33;;;;;;;6.30;99.29;99700.75;5024538;28;20049;-86
2022/01/08 02:06:56;;;;;;;17.85;3.65;;;;;;;6.30;99.24;99707.03;5025847;28;20034;-87
2022/01/08 02:09:23;;;;;;;19.42;3.20;;;;;;;6.30;99.19;99701.53;5009108;28;20496;-88
2022/01/08 02:12:00;;;;;;;18.90;3.28;;;;;;;6.32;99.01;99693.75;5007659;28;20049;-87
2022/01/08 02:14:29;;;;;;;12.52;3.30;;;;;;;6.34;99.31;99690.66;5009647;28;20052;-87
2022/01/08 02:16:56;;;;;;;8.00;2.30;;;;;;;6.38;99.11;99675.88;5023389;28;21210;-87
2022/01/08 02:19:23;;;;;;;14.05;2.60;;;;;;;6.39;98.94;99660.19;5024379;28;20136;-85
2022/01/08 02:21:59;;;;;;;15.63;3.20;;;;;;;6.39;98.80;99639.00;5023589;28;20084;-86
2022/01/08 02:24:27;;;;;;;17.98;3.10;;;;;;;6.42;98.84;99626.50;5024986;28;20037;-88
2022/01/08 02:26:55;;;;;;;14.10;4.15;;;;;;;6.46;98.72;99617.22;5025067;28;20052;-88
2022/01/08 02:29:23;;;;;;;19.42;4.63;;;;;;;6.47;98.38;99616.09;5025222;28;20131;-88
2022/01/08 02:31:53;;;;;;;14.93;3.03;;;;;;;6.47;98.39;99607.84;5024229;28;20072;-88
2022/01/08 02:34:20;;;;;;;10.55;3.17;;;;;;;6.47;98.64;99605.09;5024806;28;20038;-88
2022/01/08 02:36:48;;;;;;;20.13;4.30;;;;;;;6.50;98.45;99587.09;5024250;28;20483;-88
2022/01/08 02:39:15;;;;;;;11.00;2.15;;;;;;;6.54;98.34;99586.06;5025090;28;20052;-88
2022/01/08 02:41:42;;;;;;;13.15;2.78;;;;;;;6.60;98.34;99595.69;5024392;28;20045;-88
2022/01/08 02:44:10;;;;;;;13.57;3.22;;;;;;;6.63;98.14;99572.97;5024669;28;20041;-88
2022/01/08 02:46:41;;;;;;;9.43;2.85;;;;;;;6.64;97.79;99569.09;5024580;28;20045;-88
2022/01/08 02:49:08;;;;;;;11.07;2.37;;;;;;;6.66;97.54;99555.78;5024227;28;20095;-88
2022/01/08 02:51:35;;;;;;;12.40;2.10;;;;;;;6.68;97.72;99559.00;5023285;28;20045;-88
2022/01/08 02:54:06;;;;;;;12.52;3.58;;;;;;;6.73;97.67;99544.19;5024559;28;20037;-88
2022/01/08 02:56:40;;;;;;;13.73;2.10;;;;;;;6.75;97.51;99526.19;5008368;28;20047;-87
2022/01/08 02:59:07;;;;;;;10.25;2.10;;;;;;;6.79;97.20;99517.22;5025769;28;20278;-89
2022/01/08 03:01:35;;;;;;;12.48;3.00;;;;;;;6.82;97.20;99502.78;5023135;28;20046;-88
2022/01/08 03:04:03;;;;;;;8.70;2.20;;;;;;;6.86;97.64;99492.69;5024750;28;20474;-88
2022/01/08 03:06:30;;;;;;;16.02;2.65;;;;;;;6.86;97.24;99487.19;5023380;28;20041;-89
2022/01/08 03:08:57;;;;;;;8.32;2.00;;;;;;;6.87;96.66;99488.78;5020352;28;20042;-88
2022/01/08 03:11:24;;;;;;;6.05;1.70;;;;;;;6.88;97.07;99474.69;5023591;28;20041;-88
2022/01/08 03:13:51;;;;;;;9.90;2.00;;;;;;;6.90;96.75;99471.56;5025244;28;20478;-88
2022/01/08 03:16:19;;;;;;;9.45;1.83;;;;;;;6.92;96.66;99477.50;5007657;28;20051;-88
2022/01/08 03:18:49;;;;;;;11.52;1.58;;;;;;;6.95;96.58;99479.56;5018843;28;20049;-88
2022/01/08 03:21:20;;;;;;;8.85;1.80;;;;;;;6.96;96.77;99464.66;5024178;28;20037;-88
2022/01/08 03:24:01;;;;;;;9.90;1.88;;;;;;;6.97;96.83;99455.25;5025677;28;20038;-88
2022/01/08 03:26:29;;;;;;;7.50;1.40;;;;;;;6.97;96.50;99447.00;5007650;28;20049;-87
2022/01/08 03:28:57;;;;;;;9.02;1.45;;;;;;;6.97;96.31;99441.50;5023536;28;20049;-88
2022/01/08 03:31:25;;;;;;;4.38;1.30;;;;;;;6.97;96.49;99422.22;5025000;28;20042;-89
2022/01/08 03:33:54;;;;;;;6.30;1.80;;;;;;;6.99;96.32;99420.72;5023516;28;20050;-88
2022/01/08 03:36:22;;;;;;;5.70;1.48;;;;;;;7.03;96.13;99421.63;5025553;28;20046;-89
2022/01/08 03:38:51;;;;;;;8.20;1.90;;;;;;;7.04;96.15;99405.94;5023959;28;20057;-88
2022/01/08 03:41:19;;;;;;;4.93;0.88;;;;;;;7.08;95.93;99401.28;5022748;28;21999;-88
2022/01/08 03:43:47;;;;;;;9.40;1.55;;;;;;;7.06;95.96;99387.09;5024073;28;20057;-88
2022/01/08 03:46:14;;;;;;;6.57;1.10;;;;;;;7.07;96.28;99377.69;5024241;28;20042;-89
2022/01/08 03:48:58;;;;;;;3.22;1.17;;;;;;;7.10;96.40;99350.25;5024128;28;20132;-88
2022/01/08 03:51:25;;;;;;;6.53;1.60;;;;;;;7.13;96.27;99344.03;5024575;28;20045;-88
2022/01/08 03:53:52;;;;;;;3.65;1.13;;;;;;;7.14;96.06;99356.66;5024106;28;20041;-89
2022/01/08 03:56:19;;;;;;;3.25;0.75;;;;;;;7.16;96.34;99346.09;5023979;28;20052;-86
2022/01/08 03:58:46;;;;;;;3.55;1.00;;;;;;;7.18;96.11;99334.69;5026650;28;20473;-86
2022/01/08 04:01:13;;;;;;;4.82;1.00;;;;;;;7.20;96.42;99310.41;5028260;28;20045;-87
2022/01/08 04:03:40;;;;;;;6.85;1.33;;;;;;;7.23;96.16;99312.41;5026821;28;20037;-85
2022/01/08 04:06:07;;;;;;;8.02;1.38;;;;;;;7.24;96.33;99294.75;5028421;28;20042;-85
2022/01/08 04:08:34;;;;;;;8.10;1.05;;;;;;;7.26;96.39;99289.69;5027998;28;20473;-87
2022/01/08 04:11:02;;;;;;;6.75;1.30;;;;;;;7.26;96.43;99286.94;5027850;28;20050;-85
2022/01/08 04:13:32;;;;;;;5.07;0.88;;;;;;;7.30;96.42;99271.31;5029377;28;20041;-86
2022/01/08 04:16:09;;;;;;;10.55;1.30;;;;;;;7.33;96.40;99265.09;5028547;28;20052;-87
2022/01/08 04:18:35;;;;;;;8.98;1.42;;;;;;;7.33;96.22;99260.34;5010903;28;20052;-86
2022/01/08 04:23:38;;;;;;;4.63;0.85;;;;;;;7.34;96.47;99242.69;5027675;28;20052;-84
2022/01/08 04:26:05;;;;;;;9.73;1.73;;;;;;;7.39;96.70;99236.09;5028725;28;20033;-86
2022/01/08 04:28:32;;;;;;;6.35;0.93;;;;;;;7.43;96.57;99227.91;5026726;28;20048;-86
2022/01/08 04:30:58;;;;;;;4.88;0.85;;;;;;;7.43;96.54;99223.22;5026607;28;20507;-87
2022/01/08 04:33:25;;;;;;;5.05;0.60;;;;;;;7.47;97.13;99207.56;5026630;28;20040;-86
2022/01/08 04:35:52;;;;;;;8.45;1.02;;;;;;;7.50;96.76;99198.56;5027020;28;20033;-86
2022/01/08 04:38:19;;;;;;;10.23;2.08;;;;;;;7.52;96.92;99207.25;5025975;28;20041;-87
2022/01/08 04:40:46;;;;;;;5.90;1.33;;;;;;;7.53;97.38;99180.53;5009435;28;20049;-87
2022/01/08 04:43:13;;;;;;;3.72;0.73;;;;;;;7.54;97.51;99166.41;5026684;28;20121;-86
2022/01/08 04:45:43;;;;;;;8.18;0.60;;;;;;;7.52;97.67;99159.66;5026740;28;20071;-87
2022/01/08 04:48:10;;;;;;;3.95;1.13;;;;;;;7.52;97.64;99156.91;5027019;28;20054;-86
2022/01/08 04:50:37;;;;;;;7.20;0.80;;;;;;;7.54;97.98;99149.88;5026996;28;20069;-86
2022/01/08 04:53:04;;;;;;;3.10;1.00;;;;;;;7.54;98.11;99143.56;5024362;28;20078;-86
2022/01/08 04:55:31;;;;;;;3.33;0.77;;;;;;;7.55;98.45;99126.69;5009759;28;20037;-85
2022/01/08 04:57:57;;;;;;;4.63;0.52;;;;;;;7.56;98.28;99131.03;5028383;28;20037;-86
2022/01/08 05:00:24;;;;;;;2.70;0.50;;;;;;;7.56;98.25;99124.72;5026242;28;20080;-86
2022/01/08 05:02:54;;;;;;;2.70;0.60;;;;;;;7.58;98.35;99114.94;5026315;28;20065;-85
2022/01/08 05:05:21;;;;;;;5.95;0.65;;;;;;;7.59;98.38;99108.28;5027192;28;20044;-86
2022/01/08 05:07:47;;;;;;;1.17;0.30;;;;;;;7.61;98.56;99089.44;5027198;28;20087;-86
2022/01/08 05:10:14;;;;;;;1.63;0.25;;;;;;;7.61;98.80;99089.44;5024658;28;20048;-86
2022/01/08 05:12:41;;;;;;;3.05;0.50;;;;;;;7.63;98.40;99084.34;5025930;28;20045;-86
2022/01/08 05:15:08;;;;;;;1.45;0.38;;;;;;;7.66;99.04;99072.59;5025469;28;20041;-86
2022/01/08 05:17:37;;;;;;;2.80;0.30;;;;;;;7.69;98.66;99071.06;5026159;28;20417;-86
2022/01/08 05:20:11;;;;;;;1.60;0.40;;;;;;;7.73;98.83;99050.69;5028575;28;20198;-84
2022/01/08 05:22:50;;;;;;;0.50;0.15;;;;;;;7.74;98.79;99057.78;5027104;28;20042;-86
2022/01/08 05:25:21;;;;;;;5.22;0.30;;;;;;;7.79;98.68;99049.22;5026978;28;20753;-87
2022/01/08 05:27:49;;;;;;;1.30;0.20;;;;;;;7.80;98.80;99050.00;5024721;28;20079;-86
2022/01/08 05:30:19;;;;;;;0.28;0.10;;;;;;;7.80;98.70;99031.53;5025133;28;20045;-85
2022/01/08 05:32:46;;;;;;;0.95;0.35;;;;;;;7.80;98.99;99020.50;5026319;28;20048;-86
2022/01/08 05:35:13;;;;;;;2.63;0.28;;;;;;;7.81;98.99;99024.06;5027255;28;20042;-86
2022/01/08 05:37:40;;;;;;;2.83;0.65;;;;;;;7.83;99.15;99008.75;5025492;28;20334;-85
2022/01/08 05:40:08;;;;;;;0.30;0.10;;;;;;;7.84;99.16;99009.53;5026416;28;22364;-85
2022/01/08 05:42:36;;;;;;;1.55;0.30;;;;;;;7.87;99.27;99006.84;5009111;28;20045;-85
2022/01/08 05:45:04;;;;;;;0.47;0.10;;;;;;;7.89;99.32;98996.25;5027185;28;20045;-86
2022/01/08 05:47:33;;;;;;;2.28;0.20;;;;;;;7.91;99.39;98982.91;5007338;28;20041;-84
2022/01/08 05:50:02;;;;;;;1.55;0.17;;;;;;;7.93;99.13;98969.56;5023977;28;20120;-86
2022/01/08 05:52:29;;;;;;;0.60;0.10;;;;;;;7.94;99.23;98971.13;5026583;28;20053;-85
2022/01/08 05:54:56;;;;;;;0.32;0.10;;;;;;;7.95;99.19;98958.16;5026265;28;20477;-86
2022/01/08 05:57:23;;;;;;;2.13;0.28;;;;;;;7.96;99.38;98948.72;5025192;28;20133;-85
2022/01/08 05:59:49;;;;;;;1.50;0.20;;;;;;;7.99;99.42;98934.97;5026012;28;20148;-86
2022/01/08 06:02:16;;;;;;;0.40;0.10;;;;;;;8.05;99.58;98931.94;5024326;28;20037;-86
2022/01/08 06:04:43;;;;;;;1.45;0.28;;;;;;;8.09;99.64;98911.50;5026763;28;20037;-86
2022/01/08 06:07:10;;;;;;;1.00;0.28;;;;;;;8.11;99.40;98902.84;5022948;28;20088;-85
2022/01/08 06:09:37;;;;;;;0.10;0.10;;;;;;;8.12;99.51;98921.00;5007328;28;20060;-85
2022/01/08 06:12:04;;;;;;;0.00;0.00;;;;;;;8.15;99.43;98914.75;5025299;28;20116;-86
2022/01/08 06:14:32;;;;;;;1.45;0.15;;;;;;;8.17;99.48;98906.88;5009216;28;20535;-86
2022/01/08 06:16:59;;;;;;;0.30;0.10;;;;;;;8.19;99.38;98888.00;5025733;28;20144;-86
2022/01/08 06:19:25;;;;;;;0.30;0.00;;;;;;;8.23;99.65;98888.84;5007143;28;20527;-86
2022/01/08 06:21:54;;;;;;;0.15;0.10;;;;;;;8.27;99.59;98862.94;5009096;28;20113;-85
2022/01/08 06:24:21;;;;;;;0.52;0.10;;;;;;;8.30;99.65;98844.84;5023865;28;20033;-86
2022/01/08 06:26:48;;;;;;;1.75;0.20;;;;;;;8.30;99.52;98856.69;5027224;28;20040;-85
2022/01/08 06:29:14;;;;;;;0.35;0.00;;;;;;;8.34;99.78;98851.22;5024772;28;20040;-86
2022/01/08 06:31:41;;;;;;;0.10;0.10;;;;;;;8.33;99.60;98839.41;5024740;28;20366;-86
2022/01/08 06:34:08;;;;;;;0.40;0.15;;;;;;;8.33;99.56;98817.34;5024072;28;20037;-85
2022/01/08 06:36:35;;;;;;;0.70;0.10;;;;;;;8.35;99.59;98827.97;5009105;28;20140;-86
2022/01/08 06:39:02;;;;;;;0.20;0.20;;;;;;;8.36;99.95;98805.56;5024410;28;20043;-84
2022/01/08 06:41:29;;;;;;;1.13;0.10;;;;;;;8.38;99.87;98807.94;5024129;28;20039;-86
2022/01/08 06:43:57;;;;;;;0.40;0.20;;;;;;;8.40;99.73;98805.56;5024780;28;20048;-85
2022/01/08 06:46:24;;;;;;;4.55;1.58;;;;;;;8.42;100.00;98775.66;5021806;28;20124;-85
2022/01/08 06:48:51;;;;;;;0.73;0.13;;;;;;;8.44;100.00;98784.38;5022845;28;20049;-84
2022/01/08 06:51:18;;;;;;;0.35;0.20;;;;;;;8.44;100.00;98782.41;5024648;28;20063;-85
2022/01/08 06:53:45;;;;;;;2.05;0.17;;;;;;;8.43;99.90;98786.31;5023885;28;20045;-86
2022/01/08 06:56:12;;;;;;;0.25;0.00;;;;;;;8.44;100.00;98776.91;5008320;28;20464;-86
2022/01/08 06:58:41;;;;;;;0.10;0.00;;;;;;;8.46;100.00;98793.03;5023889;28;20118;-86
2022/01/08 07:01:08;;;;;;;1.42;0.20;;;;;;;8.49;100.00;98795.06;5022192;28;20043;-86
2022/01/08 07:03:35;;;;;;;1.55;0.10;;;;;;;8.50;100.00;98791.09;5008963;28;20037;-85
2022/01/08 07:06:02;;;;;;;0.63;0.22;;;;;;;8.53;100.00;98809.66;5024767;28;20033;-85
2022/01/08 07:08:30;;;;;;;1.17;0.20;;;;;;;8.54;100.00;98811.25;5018847;28;20046;-85
2022/01/08 07:10:56;;;;;;;2.25;0.17;;;;;;;8.53;100.00;98793.91;5023875;28;20128;-85
2022/01/08 07:13:23;;;;;;;0.65;0.43;;;;;;;8.53;100.00;98793.09;5007740;28;20441;-82
2022/01/08 07:15:50;;;;;;;0.45;0.20;;;;;;;8.56;100.00;98814.41;5024308;28;20121;-83
2022/01/08 07:18:17;;;;;;;1.73;0.20;;;;;;;8.59;100.00;98824.69;5025376;28;20053;-83
2022/01/08 07:20:44;;;;;;;5.85;0.75;;;;;;;8.59;100.00;98819.19;5024229;28;20397;-82
2022/01/08 07:23:11;;;;;;;2.78;0.93;;;;;;;8.54;100.00;98823.09;5023624;28;20052;-83
2022/01/08 07:25:37;;;;;;;12.07;1.83;;;;;;;8.49;100.00;98811.59;5023444;28;20033;-83
2022/01/08 07:28:05;;;;;;;10.05;2.47;;;;;;;8.44;100.00;98798.16;5022529;28;20042;-84
2022/01/08 07:30:31;;;;;;;14.32;3.28;;;;;;;8.41;100.00;98796.16;5024017;28;20084;-84
2022/01/08 07:32:58;;;;;;;16.02;2.45;;;;;;;8.36;99.83;98802.00;5025374;28;20069;-84
2022/01/08 07:35:28;;;;;;;12.85;2.67;;;;;;;8.32;99.84;98814.94;5028145;28;20048;-84
2022/01/08 07:37:55;;;;;;;18.55;4.35;;;;;;;8.29;99.76;98807.41;5026409;28;20052;-83
2022/01/08 07:40:22;;;;;;;14.70;2.38;;;;;;;8.27;99.56;98801.50;5028163;28;20841;-84
2022/01/08 07:42:50;;;;;;;15.80;2.80;;;;;;;8.23;99.49;98800.66;5026569;28;20037;-84
2022/01/08 07:45:18;;;;;;;20.90;4.32;;;;;;;8.21;99.51;98814.00;5026903;28;20064;-84
2022/01/08 07:47:46;;;;;;;17.33;2.97;;;;;;;8.18;99.34;98823.81;5028002;28;20132;-85
2022/01/08 07:50:14;;;;;;;16.27;3.50;;;;;;;8.18;99.39;98825.78;5027748;28;20033;-84
2022/01/08 07:52:43;;;;;;;30.80;5.65;;;;;;;8.16;99.41;98828.91;5027046;28;20041;-84
2022/01/08 07:55:11;;;;;;;15.88;4.07;;;;;;;8.18;98.87;98834.84;5027371;28;20249;-84
2022/01/08 07:57:38;;;;;;;31.20;6.13;;;;;;;8.16;99.19;98842.69;5028326;28;20037;-85
2022/01/08 08:00:06;;;;;;;19.55;3.88;;;;;;;8.13;98.95;98848.94;5027097;28;20091;-85
2022/01/08 08:02:33;;;;;;;25.48;5.68;;;;;;;8.13;98.89;98878.50;5027804;28;20137;-85
2022/01/08 08:05:00;;;;;;;28.20;5.63;;;;;;;8.10;98.27;98870.97;5011069;28;20763;-84
2022/01/08 08:07:36;;;;;;;29.45;4.95;;;;;;;8.08;97.94;98879.59;5009877;28;20063;-84
2022/01/08 08:10:06;;;;;;;27.67;5.38;;;;;;;8.04;97.91;98900.81;5024402;28;20080;-84
2022/01/08 08:12:33;;;;;;;22.15;5.38;;;;;;;8.01;97.96;98912.59;5026479;28;20037;-84
2022/01/08 08:15:00;;;;;;;30.60;6.30;;;;;;;8.02;97.99;98918.91;5009095;28;20055;-83
2022/01/08 08:17:27;;;;;;;39.38;7.32;;;;;;;8.00;98.10;98924.75;5026704;28;20125;-84
2022/01/08 08:19:54;;;;;;;31.95;6.63;;;;;;;7.99;98.15;98928.69;5026720;28;20507;-83
2022/01/08 08:22:21;;;;;;;31.27;6.32;;;;;;;7.95;98.26;98925.88;5026596;28;20644;-82
2022/01/08 08:24:47;;;;;;;37.10;7.25;;;;;;;7.93;98.30;98917.19;5026561;28;20049;-82
2022/01/08 08:27:14;;;;;;;29.88;7.57;;;;;;;7.90;98.25;98915.19;5031450;28;20030;-82
2022/01/08 08:29:41;;;;;;;42.45;6.63;;;;;;;7.86;98.01;98919.84;5027137;28;20041;-82
2022/01/08 08:32:08;;;;;;;37.38;6.68;;;;;;;7.79;97.17;98925.25;5026038;28;20108;-81
2022/01/08 08:34:35;;;;;;;31.63;6.05;;;;;;;7.73;97.13;98915.69;5027785;28;20099;-81
2022/01/08 08:37:03;;;;;;;32.95;5.70;;;;;;;7.69;96.96;98903.84;5026697;28;20465;-81
2022/01/08 08:39:30;;;;;;;36.47;6.03;;;;;;;7.63;96.37;98890.75;5028305;28;20052;-80
2022/01/08 08:41:57;;;;;;;43.00;9.93;;;;;;;7.59;96.67;98865.13;5027859;28;20065;-80
2022/01/08 08:44:23;;;;;;;33.58;8.73;;;;;;;7.54;96.54;98868.22;5026031;28;20068;-81
2022/01/08 08:46:50;;;;;;;28.13;5.75;;;;;;;7.51;96.44;98849.66;5028803;28;20053;-82
2022/01/08 08:49:18;;;;;;;33.13;8.32;;;;;;;7.46;96.99;98816.94;5027303;28;20524;-81
2022/01/08 08:51:44;;;;;;;34.60;8.85;;;;;;;7.42;96.36;98819.66;5010004;28;20056;-82
2022/01/08 08:54:11;;;;;;;38.58;8.23;;;;;;;7.41;96.41;98825.53;5025839;28;20127;-81
2022/01/08 08:56:38;;;;;;;32.60;8.93;;;;;;;7.34;96.49;98809.69;5026993;28;20041;-83
2022/01/08 08:59:05;;;;;;;37.00;7.35;;;;;;;7.32;96.39;98792.75;5028827;28;20042;-82
2022/01/08 09:01:32;;;;;;;46.80;8.75;;;;;;;7.29;96.43;98791.53;5026664;28;20087;-84
2022/01/08 09:04:02;;;;;;;36.05;6.40;;;;;;;7.26;96.30;98788.72;5024941;28;20029;-83
2022/01/08 09:06:30;;;;;;;49.20;9.60;;;;;;;7.23;96.57;98773.75;5025097;28;20067;-83
2022/01/08 09:08:57;;;;;;;40.58;8.57;;;;;;;7.20;95.91;98787.47;5025969;28;20378;-83
2022/01/08 09:11:24;;;;;;;40.58;8.30;;;;;;;7.16;95.90;98772.84;5026959;28;20033;-83
2022/01/08 09:13:51;;;;;;;37.55;8.55;;;;;;;7.12;95.61;98770.03;5026037;28;20053;-83
2022/01/08 09:16:18;;;;;;;33.15;6.95;;;;;;;7.08;95.51;98779.41;5026670;28;20501;-83
2022/01/08 09:18:45;;;;;;;36.05;7.80;;;;;;;7.06;95.46;98787.25;5025767;28;20425;-83
2022/01/08 09:21:12;;;;;;;41.20;7.82;;;;;;;7.03;95.46;98793.50;5027688;28;20037;-83
2022/01/08 09:23:39;;;;;;;36.05;7.30;;;;;;;6.99;95.26;98798.91;5026788;28;20112;-83
2022/01/08 09:26:06;;;;;;;39.28;8.35;;;;;;;6.98;95.37;98804.81;5025579;28;20046;-83
2022/01/08 09:28:33;;;;;;;43.33;8.88;;;;;;;6.97;95.45;98814.22;5036323;28;20041;-83
2022/01/08 09:31:02;;;;;;;38.00;8.68;;;;;;;6.93;95.08;98814.16;5026900;28;20473;-82
2022/01/08 09:33:31;;;;;;;41.92;7.93;;;;;;;6.91;95.00;98810.19;5025733;28;20042;-84
2022/01/08 09:35:58;;;;;;;44.88;7.47;;;;;;;6.92;95.09;98809.81;5010804;28;20047;-86
2022/01/08 09:38:26;;;;;;;43.55;10.15;;;;;;;6.90;94.85;98819.59;5025723;28;20085;-85
2022/01/08 09:40:53;;;;;;;42.88;9.32;;;;;;;6.90;94.89;98814.09;5009405;28;20381;-84
2022/01/08 09:43:20;;;;;;;34.28;10.48;;;;;;;6.91;94.86;98819.22;5026138;28;20112;-85
2022/01/08 09:45:47;;;;;;;44.05;8.38;;;;;;;6.93;95.02;98838.13;5026601;28;20044;-83
2022/01/08 09:48:14;;;;;;;38.22;7.32;;;;;;;6.93;94.88;98827.94;5026277;28;20155;-83
2022/01/08 09:50:43;;;;;;;36.47;7.50;;;;;;;6.94;94.82;98823.19;5027915;28;20044;-83
2022/01/08 09:53:10;;;;;;;55.47;9.73;;;;;;;6.97;94.89;98822.47;5042472;28;20056;-84
2022/01/08 09:55:37;;;;;;;39.28;8.35;;;;;;;6.98;94.60;98816.63;5010917;28;20142;-83
2022/01/08 09:58:03;;;;;;;30.90;6.82;;;;;;;6.99;94.56;98820.94;5027855;28;20040;-84
2022/01/08 10:00:32;;;;;;;39.60;8.15;;;;;;;6.99;94.28;98809.94;5008084;28;20049;-85
2022/01/08 10:03:27;;;;;;;49.03;8.25;;;;;;;7.00;94.04;98795.03;5025405;28;20123;-83
2022/01/08 10:05:58;;;;;;;41.20;8.07;;;;;;;7.02;94.30;98800.13;5009368;28;20042;-86
2022/01/08 10:08:42;;;;;;;37.65;9.80;;;;;;;7.03;94.12;98802.53;5012059;28;22908;-83
2022/01/08 10:11:10;;;;;;;37.33;7.72;;;;;;;7.05;94.34;98819.47;5026917;28;20512;-81
2022/01/08 10:13:40;;;;;;;42.50;9.68;;;;;;;7.06;94.12;98825.78;5025375;28;20503;-82
2022/01/08 10:18:58;;;;;;;46.47;8.55;;;;;;;7.06;93.98;98821.06;5025295;28;20044;-83
2022/01/08 10:21:32;;;;;;;49.20;10.30;;;;;;;7.08;93.89;98817.94;5025459;28;20046;-82
2022/01/08 10:24:03;;;;;;;56.25;10.18;;;;;;;7.09;93.67;98822.28;5024721;28;20063;-81
2022/01/08 10:26:35;;;;;;;43.72;10.25;;;;;;;7.10;93.63;98821.09;5025244;28;20041;-79
2022/01/08 10:29:09;;;;;;;41.03;10.27;;;;;;;7.09;93.63;98830.53;5019325;28;20041;-79
2022/01/08 10:31:45;;;;;;;38.83;9.00;;;;;;;7.07;93.08;98832.88;5025209;28;20041;-80
2022/01/08 10:34:17;;;;;;;49.53;10.15;;;;;;;7.05;93.33;98829.69;5024003;28;20135;-78
2022/01/08 10:36:54;;;;;;;34.58;9.15;;;;;;;7.04;93.08;98833.59;5023727;28;20025;-79
2022/01/08 10:39:43;;;;;;;45.35;9.85;;;;;;;6.99;92.84;98837.44;5025091;28;20045;-79
2022/01/08 10:42:17;;;;;;;43.00;9.10;;;;;;;6.98;92.30;98832.31;5023131;28;20123;-80
2022/01/08 10:44:48;;;;;;;47.67;10.02;;;;;;;6.98;92.24;98830.38;5022373;28;20052;-81
2022/01/08 10:47:18;;;;;;;49.47;8.48;;;;;;;7.00;92.32;98832.75;5022867;28;20057;-81
2022/01/08 10:49:47;;;;;;;53.92;10.00;;;;;;;6.99;91.81;98837.44;5006067;28;20048;-80
2022/01/08 10:52:17;;;;;;;42.45;7.45;;;;;;;6.98;91.54;98851.56;5017768;28;20045;-80
2022/01/08 10:54:53;;;;;;;40.35;9.45;;;;;;;6.97;90.98;98866.47;5023945;28;20525;-81
2022/01/08 10:57:20;;;;;;;37.30;9.55;;;;;;;6.92;90.58;98864.03;5020657;28;20247;-82
2022/01/08 10:59:55;;;;;;;36.30;8.50;;;;;;;6.95;90.87;98852.31;5023374;28;20042;-81
2022/01/08 11:02:26;;;;;;;37.67;8.13;;;;;;;6.96;90.36;98862.97;5005706;28;20140;-81
2022/01/08 11:04:54;;;;;;;32.63;6.57;;;;;;;7.01;90.55;98857.16;5023724;28;20041;-81
2022/01/08 11:07:25;;;;;;;38.28;7.05;;;;;;;7.03;89.77;98857.56;5021996;28;20049;-81
2022/01/08 11:09:59;;;;;;;32.17;6.93;;;;;;;7.05;89.35;98860.75;5033644;28;20040;-81
2022/01/08 11:12:33;;;;;;;44.88;7.95;;;;;;;7.08;89.35;98868.25;5023730;28;20045;-81
2022/01/08 11:17:50;;;;;;;19.60;5.93;;;;;;;7.02;87.29;98871.69;5023117;28;20037;-83
2022/01/08 11:20:36;;;;;;;23.33;5.43;;;;;;;7.01;87.36;98870.91;5023086;28;20042;-82
2022/01/08 11:23:03;;;;;;;28.77;5.55;;;;;;;7.02;87.49;98874.44;5022037;28;20724;-81
2022/01/08 11:25:35;;;;;;;15.90;5.28;;;;;;;6.98;85.92;98868.06;5021500;28;20146;-81
2022/01/08 11:28:05;;;;;;;29.77;5.80;;;;;;;6.99;86.96;98869.69;5023973;28;20039;-82
2022/01/08 11:30:36;;;;;;;22.35;4.72;;;;;;;6.95;85.89;98857.81;5022407;28;20456;-81
2022/01/08 11:33:10;;;;;;;24.27;6.82;;;;;;;6.97;86.57;98866.47;5023507;28;20048;-81
2022/01/08 11:35:41;;;;;;;27.90;4.85;;;;;;;6.96;86.53;98860.22;5023730;28;20467;-81
2022/01/08 11:38:12;;;;;;;25.27;5.25;;;;;;;6.97;86.08;98866.47;5019908;28;20046;-80
2022/01/08 11:40:41;;;;;;;21.30;5.32;;;;;;;6.94;85.88;98862.50;5025294;28;20041;-83
2022/01/08 11:43:10;;;;;;;32.67;7.60;;;;;;;6.95;85.57;98857.81;5024002;28;20081;-81
2022/01/08 11:45:40;;;;;;;16.40;4.40;;;;;;;6.93;85.33;98860.94;5023092;28;20119;-81
2022/01/08 11:48:10;;;;;;;28.02;4.78;;;;;;;6.93;85.16;98865.63;5022758;28;20057;-80
2022/01/08 11:50:38;;;;;;;25.95;6.00;;;;;;;6.94;85.27;98856.22;5025189;28;20053;-80
2022/01/08 11:53:23;;;;;;;21.48;4.90;;;;;;;6.92;84.88;98847.53;5022362;28;20140;-81
2022/01/08 11:55:51;;;;;;;17.10;3.78;;;;;;;6.95;84.95;98860.56;5024189;28;20049;-82
2022/01/08 11:58:30;;;;;;;20.25;3.95;;;;;;;6.91;83.09;98845.97;5022515;28;20037;-82
2022/01/08 12:01:01;;;;;;;18.75;4.82;;;;;;;6.89;82.47;98845.50;5024924;28;20033;-81
2022/01/08 12:03:28;;;;;;;18.13;4.43;;;;;;;6.92;84.07;98836.53;5023081;28;20192;-75
2022/01/08 12:05:55;;;;;;;31.20;6.65;;;;;;;6.93;83.72;98838.13;5023684;28;20037;-87
2022/01/08 12:09:07;;;;;;;21.85;4.55;;;;;;;6.92;82.77;98833.78;5023416;28;20469;-85